sensor_id;sensor_type;location;lat;lon;timestamp;P1;durP1;ratioP1;P2;durP2;ratioP2
42226;SDS011;27892;52.378;13.122;2022-10-16T00:01:11;1.23;;;1.20;;
42226;SDS011;27892;52.378;13.122;2022-10-16T00:03:39;1.50;;;1.40;;
42226;SDS011;27892;52.378;13.122;2022-10-16T00:06:05;1.07;;;1.07;;
42226;SDS011;27892;52.378;13.122;2022-10-16T00:08:32;1.30;;;1.20;;
42226;SDS011;27892;52.378;13.122;2022-10-16T00:11:01;1.00;;;1.00;;
42226;SDS011;27892;52.378;13.122;2022-10-16T00:13:28;1.30;;;1.30;;
42226;SDS011;27892;52.378;13.122;2022-10-16T00:15:55;1.53;;;1.43;;
42226;SDS011;27892;52.378;13.122;2022-10-16T00:18:23;1.93;;;1.60;;
42226;SDS011;27892;52.378;13.122;2022-10-16T00:20:49;1.70;;;1.60;;
42226;SDS011;27892;52.378;13.122;2022-10-16T00:23:15;1.70;;;1.60;;
42226;SDS011;27892;52.378;13.122;2022-10-16T00:25:42;1.20;;;1.20;;
42226;SDS011;27892;52.378;13.122;2022-10-16T00:28:08;1.30;;;1.30;;
42226;SDS011;27892;52.378;13.122;2022-10-16T00:30:33;1.40;;;1.40;;
42226;SDS011;27892;52.378;13.122;2022-10-16T00:33:02;1.80;;;1.70;;
42226;SDS011;27892;52.378;13.122;2022-10-16T00:35:28;1.43;;;1.40;;
42226;SDS011;27892;52.378;13.122;2022-10-16T00:37:54;1.37;;;1.30;;
42226;SDS011;27892;52.378;13.122;2022-10-16T00:40:19;1.33;;;1.33;;
42226;SDS011;27892;52.378;13.122;2022-10-16T00:42:45;1.20;;;1.20;;
42226;SDS011;27892;52.378;13.122;2022-10-16T00:45:11;1.20;;;1.20;;
42226;SDS011;27892;52.378;13.122;2022-10-16T00:47:37;1.37;;;1.27;;
42226;SDS011;27892;52.378;13.122;2022-10-16T00:52:35;1.10;;;1.10;;
42226;SDS011;27892;52.378;13.122;2022-10-16T00:55:04;2.10;;;1.37;;
42226;SDS011;27892;52.378;13.122;2022-10-16T00:57:32;1.23;;;1.20;;
42226;SDS011;27892;52.378;13.122;2022-10-16T00:59:57;1.60;;;1.50;;
42226;SDS011;27892;52.378;13.122;2022-10-16T01:02:23;1.20;;;1.20;;
42226;SDS011;27892;52.378;13.122;2022-10-16T01:04:50;1.50;;;1.40;;
42226;SDS011;27892;52.378;13.122;2022-10-16T01:10:04;1.53;;;1.43;;
42226;SDS011;27892;52.378;13.122;2022-10-16T01:12:56;1.40;;;1.30;;
42226;SDS011;27892;52.378;13.122;2022-10-16T01:15:33;1.10;;;1.10;;
42226;SDS011;27892;52.378;13.122;2022-10-16T01:18:12;1.23;;;1.20;;
42226;SDS011;27892;52.378;13.122;2022-10-16T01:28:19;1.13;;;1.13;;
42226;SDS011;27892;52.378;13.122;2022-10-16T01:30:50;1.00;;;1.00;;
42226;SDS011;27892;52.378;13.122;2022-10-16T01:33:22;1.50;;;1.40;;
42226;SDS011;27892;52.378;13.122;2022-10-16T01:35:55;1.57;;;1.40;;
42226;SDS011;27892;52.378;13.122;2022-10-16T01:38:37;1.63;;;1.53;;
42226;SDS011;27892;52.378;13.122;2022-10-16T01:41:07;1.17;;;1.17;;
42226;SDS011;27892;52.378;13.122;2022-10-16T01:43:38;1.43;;;1.40;;
42226;SDS011;27892;52.378;13.122;2022-10-16T01:46:07;1.30;;;1.30;;
42226;SDS011;27892;52.378;13.122;2022-10-16T01:48:35;1.20;;;1.20;;
42226;SDS011;27892;52.378;13.122;2022-10-16T01:51:06;1.20;;;1.20;;
42226;SDS011;27892;52.378;13.122;2022-10-16T01:53:35;1.10;;;1.10;;
42226;SDS011;27892;52.378;13.122;2022-10-16T01:56:02;0.90;;;0.90;;
42226;SDS011;27892;52.378;13.122;2022-10-16T01:58:33;1.10;;;1.10;;
42226;SDS011;27892;52.378;13.122;2022-10-16T02:01:03;1.10;;;1.10;;
42226;SDS011;27892;52.378;13.122;2022-10-16T02:03:31;1.00;;;1.00;;
42226;SDS011;27892;52.378;13.122;2022-10-16T02:05:58;1.27;;;1.27;;
42226;SDS011;27892;52.378;13.122;2022-10-16T02:08:24;1.07;;;1.07;;
42226;SDS011;27892;52.378;13.122;2022-10-16T02:10:54;1.13;;;1.13;;
42226;SDS011;27892;52.378;13.122;2022-10-16T02:13:28;1.30;;;1.30;;
42226;SDS011;27892;52.378;13.122;2022-10-16T02:16:15;1.20;;;1.20;;
42226;SDS011;27892;52.378;13.122;2022-10-16T02:19:00;1.37;;;1.37;;
42226;SDS011;27892;52.378;13.122;2022-10-16T02:21:50;1.27;;;1.27;;
42226;SDS011;27892;52.378;13.122;2022-10-16T02:26:57;1.10;;;1.10;;
42226;SDS011;27892;52.378;13.122;2022-10-16T02:29:28;1.10;;;1.10;;
42226;SDS011;27892;52.378;13.122;2022-10-16T02:31:55;1.20;;;1.20;;
42226;SDS011;27892;52.378;13.122;2022-10-16T02:34:27;1.17;;;1.17;;
42226;SDS011;27892;52.378;13.122;2022-10-16T02:36:56;1.10;;;1.10;;
42226;SDS011;27892;52.378;13.122;2022-10-16T02:39:23;1.00;;;1.00;;
42226;SDS011;27892;52.378;13.122;2022-10-16T02:41:51;0.97;;;0.97;;
42226;SDS011;27892;52.378;13.122;2022-10-16T02:44:16;1.20;;;1.20;;
42226;SDS011;27892;52.378;13.122;2022-10-16T02:46:42;0.90;;;0.90;;
42226;SDS011;27892;52.378;13.122;2022-10-16T02:49:07;1.00;;;1.00;;
42226;SDS011;27892;52.378;13.122;2022-10-16T02:51:33;1.00;;;1.00;;
42226;SDS011;27892;52.378;13.122;2022-10-16T02:53:58;1.67;;;1.20;;
42226;SDS011;27892;52.378;13.122;2022-10-16T02:56:24;1.20;;;1.20;;
42226;SDS011;27892;52.378;13.122;2022-10-16T02:58:50;1.30;;;1.30;;
42226;SDS011;27892;52.378;13.122;2022-10-16T03:01:15;1.10;;;1.10;;
42226;SDS011;27892;52.378;13.122;2022-10-16T03:03:41;1.20;;;1.10;;
42226;SDS011;27892;52.378;13.122;2022-10-16T03:06:07;0.90;;;0.90;;
42226;SDS011;27892;52.378;13.122;2022-10-16T03:08:33;1.00;;;1.00;;
42226;SDS011;27892;52.378;13.122;2022-10-16T03:10:59;1.20;;;1.20;;
42226;SDS011;27892;52.378;13.122;2022-10-16T03:13:24;1.20;;;1.20;;
42226;SDS011;27892;52.378;13.122;2022-10-16T03:15:50;1.50;;;1.40;;
42226;SDS011;27892;52.378;13.122;2022-10-16T03:18:16;1.40;;;1.30;;
42226;SDS011;27892;52.378;13.122;2022-10-16T03:20:42;1.20;;;1.20;;
42226;SDS011;27892;52.378;13.122;2022-10-16T03:23:08;1.03;;;1.03;;
42226;SDS011;27892;52.378;13.122;2022-10-16T03:25:34;0.90;;;0.90;;
42226;SDS011;27892;52.378;13.122;2022-10-16T03:28:00;1.30;;;1.20;;
42226;SDS011;27892;52.378;13.122;2022-10-16T03:30:25;1.10;;;1.10;;
42226;SDS011;27892;52.378;13.122;2022-10-16T03:32:51;1.20;;;1.20;;
42226;SDS011;27892;52.378;13.122;2022-10-16T03:35:22;1.00;;;1.00;;
42226;SDS011;27892;52.378;13.122;2022-10-16T03:37:48;0.80;;;0.80;;
42226;SDS011;27892;52.378;13.122;2022-10-16T03:40:14;1.27;;;1.27;;
42226;SDS011;27892;52.378;13.122;2022-10-16T03:42:41;1.20;;;1.20;;
42226;SDS011;27892;52.378;13.122;2022-10-16T03:45:07;1.43;;;1.40;;
42226;SDS011;27892;52.378;13.122;2022-10-16T03:47:33;1.13;;;1.13;;
42226;SDS011;27892;52.378;13.122;2022-10-16T03:49:59;1.20;;;1.20;;
42226;SDS011;27892;52.378;13.122;2022-10-16T03:52:25;1.20;;;1.20;;
42226;SDS011;27892;52.378;13.122;2022-10-16T03:54:50;0.90;;;0.90;;
42226;SDS011;27892;52.378;13.122;2022-10-16T03:57:16;1.20;;;1.10;;
42226;SDS011;27892;52.378;13.122;2022-10-16T03:59:42;1.20;;;1.20;;
42226;SDS011;27892;52.378;13.122;2022-10-16T04:02:08;1.57;;;1.47;;
42226;SDS011;27892;52.378;13.122;2022-10-16T04:04:34;1.73;;;1.63;;
42226;SDS011;27892;52.378;13.122;2022-10-16T04:06:59;1.30;;;1.30;;
42226;SDS011;27892;52.378;13.122;2022-10-16T04:09:25;1.50;;;1.40;;
42226;SDS011;27892;52.378;13.122;2022-10-16T04:11:51;1.30;;;1.30;;
42226;SDS011;27892;52.378;13.122;2022-10-16T04:14:17;1.20;;;1.10;;
42226;SDS011;27892;52.378;13.122;2022-10-16T04:16:42;1.50;;;1.40;;
42226;SDS011;27892;52.378;13.122;2022-10-16T04:19:08;1.17;;;1.03;;
42226;SDS011;27892;52.378;13.122;2022-10-16T04:21:34;1.00;;;1.00;;
42226;SDS011;27892;52.378;13.122;2022-10-16T04:24:00;1.30;;;1.20;;
42226;SDS011;27892;52.378;13.122;2022-10-16T04:26:25;1.43;;;1.20;;
42226;SDS011;27892;52.378;13.122;2022-10-16T04:28:51;1.23;;;1.23;;
42226;SDS011;27892;52.378;13.122;2022-10-16T04:31:17;1.20;;;1.20;;
42226;SDS011;27892;52.378;13.122;2022-10-16T04:33:42;1.03;;;1.03;;
42226;SDS011;27892;52.378;13.122;2022-10-16T04:36:08;1.10;;;1.10;;
42226;SDS011;27892;52.378;13.122;2022-10-16T04:38:34;0.90;;;0.90;;
42226;SDS011;27892;52.378;13.122;2022-10-16T04:41:02;1.20;;;1.20;;
42226;SDS011;27892;52.378;13.122;2022-10-16T04:43:28;1.00;;;1.00;;
42226;SDS011;27892;52.378;13.122;2022-10-16T04:45:54;1.10;;;1.10;;
42226;SDS011;27892;52.378;13.122;2022-10-16T04:48:21;1.20;;;1.20;;
42226;SDS011;27892;52.378;13.122;2022-10-16T04:50:47;1.63;;;1.53;;
42226;SDS011;27892;52.378;13.122;2022-10-16T04:53:12;1.10;;;1.10;;
42226;SDS011;27892;52.378;13.122;2022-10-16T04:55:38;1.10;;;1.10;;
42226;SDS011;27892;52.378;13.122;2022-10-16T04:58:06;1.40;;;1.30;;
42226;SDS011;27892;52.378;13.122;2022-10-16T05:00:32;1.10;;;1.10;;
42226;SDS011;27892;52.378;13.122;2022-10-16T05:02:58;1.10;;;1.10;;
42226;SDS011;27892;52.378;13.122;2022-10-16T05:05:25;1.53;;;1.40;;
42226;SDS011;27892;52.378;13.122;2022-10-16T05:07:51;1.67;;;1.57;;
42226;SDS011;27892;52.378;13.122;2022-10-16T05:10:18;1.70;;;1.60;;
42226;SDS011;27892;52.378;13.122;2022-10-16T05:12:44;1.80;;;1.70;;
42226;SDS011;27892;52.378;13.122;2022-10-16T05:15:10;1.60;;;1.50;;
42226;SDS011;27892;52.378;13.122;2022-10-16T05:17:36;1.50;;;1.40;;
42226;SDS011;27892;52.378;13.122;2022-10-16T05:20:02;1.40;;;1.40;;
42226;SDS011;27892;52.378;13.122;2022-10-16T05:22:28;1.57;;;1.47;;
42226;SDS011;27892;52.378;13.122;2022-10-16T05:24:54;1.70;;;1.60;;
42226;SDS011;27892;52.378;13.122;2022-10-16T05:27:19;2.37;;;2.17;;
42226;SDS011;27892;52.378;13.122;2022-10-16T05:29:46;1.60;;;1.50;;
42226;SDS011;27892;52.378;13.122;2022-10-16T05:32:13;1.50;;;1.40;;
42226;SDS011;27892;52.378;13.122;2022-10-16T05:34:39;1.70;;;1.30;;
42226;SDS011;27892;52.378;13.122;2022-10-16T05:37:05;1.30;;;1.30;;
42226;SDS011;27892;52.378;13.122;2022-10-16T05:39:31;1.20;;;1.20;;
42226;SDS011;27892;52.378;13.122;2022-10-16T05:41:56;1.20;;;1.20;;
42226;SDS011;27892;52.378;13.122;2022-10-16T05:44:22;1.10;;;1.10;;
42226;SDS011;27892;52.378;13.122;2022-10-16T05:46:47;1.40;;;1.40;;
42226;SDS011;27892;52.378;13.122;2022-10-16T05:49:13;1.60;;;1.50;;
42226;SDS011;27892;52.378;13.122;2022-10-16T05:51:38;1.60;;;1.60;;
42226;SDS011;27892;52.378;13.122;2022-10-16T05:54:04;2.00;;;1.90;;
42226;SDS011;27892;52.378;13.122;2022-10-16T05:56:30;1.60;;;1.50;;
42226;SDS011;27892;52.378;13.122;2022-10-16T05:58:55;2.03;;;1.80;;
42226;SDS011;27892;52.378;13.122;2022-10-16T06:01:21;1.30;;;1.30;;
42226;SDS011;27892;52.378;13.122;2022-10-16T06:03:49;1.40;;;1.40;;
42226;SDS011;27892;52.378;13.122;2022-10-16T06:06:19;1.60;;;1.50;;
42226;SDS011;27892;52.378;13.122;2022-10-16T06:08:46;1.77;;;1.67;;
42226;SDS011;27892;52.378;13.122;2022-10-16T06:11:14;1.40;;;1.40;;
42226;SDS011;27892;52.378;13.122;2022-10-16T06:13:43;1.70;;;1.60;;
42226;SDS011;27892;52.378;13.122;2022-10-16T06:16:11;1.50;;;1.40;;
42226;SDS011;27892;52.378;13.122;2022-10-16T06:18:37;1.40;;;1.40;;
42226;SDS011;27892;52.378;13.122;2022-10-16T06:21:08;1.60;;;1.50;;
42226;SDS011;27892;52.378;13.122;2022-10-16T06:23:40;1.70;;;1.60;;
42226;SDS011;27892;52.378;13.122;2022-10-16T06:26:10;1.60;;;1.50;;
42226;SDS011;27892;52.378;13.122;2022-10-16T06:28:40;1.47;;;1.40;;
42226;SDS011;27892;52.378;13.122;2022-10-16T06:31:07;1.60;;;1.50;;
42226;SDS011;27892;52.378;13.122;2022-10-16T06:33:34;1.87;;;1.47;;
42226;SDS011;27892;52.378;13.122;2022-10-16T06:36:04;1.77;;;1.57;;
42226;SDS011;27892;52.378;13.122;2022-10-16T06:38:34;1.40;;;1.40;;
42226;SDS011;27892;52.378;13.122;2022-10-16T06:41:00;1.37;;;1.30;;
42226;SDS011;27892;52.378;13.122;2022-10-16T06:43:31;1.80;;;1.70;;
42226;SDS011;27892;52.378;13.122;2022-10-16T06:45:57;1.80;;;1.70;;
42226;SDS011;27892;52.378;13.122;2022-10-16T06:48:24;1.80;;;1.60;;
42226;SDS011;27892;52.378;13.122;2022-10-16T06:51:00;2.10;;;2.00;;
42226;SDS011;27892;52.378;13.122;2022-10-16T06:53:29;1.93;;;1.83;;
42226;SDS011;27892;52.378;13.122;2022-10-16T06:55:57;1.60;;;1.60;;
42226;SDS011;27892;52.378;13.122;2022-10-16T06:58:22;1.60;;;1.50;;
42226;SDS011;27892;52.378;13.122;2022-10-16T07:00:49;2.27;;;1.60;;
42226;SDS011;27892;52.378;13.122;2022-10-16T07:03:21;1.70;;;1.60;;
42226;SDS011;27892;52.378;13.122;2022-10-16T07:05:46;1.47;;;1.40;;
42226;SDS011;27892;52.378;13.122;2022-10-16T07:08:12;1.23;;;1.23;;
42226;SDS011;27892;52.378;13.122;2022-10-16T07:10:37;1.20;;;1.20;;
42226;SDS011;27892;52.378;13.122;2022-10-16T07:13:03;1.40;;;1.30;;
42226;SDS011;27892;52.378;13.122;2022-10-16T07:15:29;1.20;;;1.20;;
42226;SDS011;27892;52.378;13.122;2022-10-16T07:17:54;1.30;;;1.20;;
42226;SDS011;27892;52.378;13.122;2022-10-16T07:20:20;1.40;;;1.30;;
42226;SDS011;27892;52.378;13.122;2022-10-16T07:22:46;1.27;;;1.27;;
42226;SDS011;27892;52.378;13.122;2022-10-16T07:25:11;1.23;;;1.23;;
42226;SDS011;27892;52.378;13.122;2022-10-16T07:27:37;1.17;;;1.17;;
42226;SDS011;27892;52.378;13.122;2022-10-16T07:30:03;1.10;;;1.10;;
42226;SDS011;27892;52.378;13.122;2022-10-16T07:32:30;1.20;;;1.20;;
42226;SDS011;27892;52.378;13.122;2022-10-16T07:34:56;1.13;;;1.13;;
42226;SDS011;27892;52.378;13.122;2022-10-16T07:37:21;1.30;;;1.30;;
42226;SDS011;27892;52.378;13.122;2022-10-16T07:39:47;1.10;;;1.00;;
42226;SDS011;27892;52.378;13.122;2022-10-16T07:42:13;1.30;;;1.30;;
42226;SDS011;27892;52.378;13.122;2022-10-16T07:44:38;1.10;;;1.10;;
42226;SDS011;27892;52.378;13.122;2022-10-16T07:47:05;1.50;;;1.40;;
42226;SDS011;27892;52.378;13.122;2022-10-16T07:49:31;1.60;;;1.50;;
42226;SDS011;27892;52.378;13.122;2022-10-16T07:51:56;1.40;;;1.30;;
42226;SDS011;27892;52.378;13.122;2022-10-16T07:54:22;1.30;;;1.30;;
42226;SDS011;27892;52.378;13.122;2022-10-16T07:56:47;1.10;;;1.10;;
42226;SDS011;27892;52.378;13.122;2022-10-16T07:59:13;0.90;;;0.90;;
42226;SDS011;27892;52.378;13.122;2022-10-16T08:01:38;1.00;;;1.00;;
42226;SDS011;27892;52.378;13.122;2022-10-16T08:04:04;1.00;;;1.00;;
42226;SDS011;27892;52.378;13.122;2022-10-16T08:06:34;1.00;;;1.00;;
42226;SDS011;27892;52.378;13.122;2022-10-16T08:09:02;1.10;;;1.10;;
42226;SDS011;27892;52.378;13.122;2022-10-16T08:11:28;0.93;;;0.93;;
42226;SDS011;27892;52.378;13.122;2022-10-16T08:13:53;1.10;;;1.10;;
42226;SDS011;27892;52.378;13.122;2022-10-16T08:16:19;1.30;;;1.20;;
42226;SDS011;27892;52.378;13.122;2022-10-16T08:18:45;1.10;;;1.10;;
42226;SDS011;27892;52.378;13.122;2022-10-16T08:21:12;1.00;;;1.00;;
42226;SDS011;27892;52.378;13.122;2022-10-16T08:23:40;1.52;;;1.42;;
42226;SDS011;27892;52.378;13.122;2022-10-16T08:26:06;2.30;;;2.10;;
42226;SDS011;27892;52.378;13.122;2022-10-16T08:28:32;1.52;;;1.42;;
42226;SDS011;27892;52.378;13.122;2022-10-16T08:31:12;1.30;;;1.30;;
42226;SDS011;27892;52.378;13.122;2022-10-16T08:33:40;1.55;;;1.45;;
42226;SDS011;27892;52.378;13.122;2022-10-16T08:36:07;1.38;;;1.20;;
42226;SDS011;27892;52.378;13.122;2022-10-16T08:38:34;1.90;;;1.42;;
42226;SDS011;27892;52.378;13.122;2022-10-16T08:41:02;1.40;;;1.30;;
42226;SDS011;27892;52.378;13.122;2022-10-16T08:49:26;6.03;;;4.50;;
42226;SDS011;27892;52.378;13.122;2022-10-16T08:51:52;10.32;;;7.40;;
42226;SDS011;27892;52.378;13.122;2022-10-16T08:57:22;3.00;;;2.70;;
42226;SDS011;27892;52.378;13.122;2022-10-16T08:59:53;2.13;;;1.52;;
42226;SDS011;27892;52.378;13.122;2022-10-16T09:02:32;1.30;;;1.20;;
42226;SDS011;27892;52.378;13.122;2022-10-16T09:05:23;1.00;;;1.00;;
42226;SDS011;27892;52.378;13.122;2022-10-16T09:08:05;1.30;;;1.20;;
42226;SDS011;27892;52.378;13.122;2022-10-16T09:10:57;1.25;;;1.25;;
42226;SDS011;27892;52.378;13.122;2022-10-16T09:16:28;0.90;;;0.90;;
42226;SDS011;27892;52.378;13.122;2022-10-16T09:21:31;0.80;;;0.80;;
42226;SDS011;27892;52.378;13.122;2022-10-16T09:24:07;1.27;;;1.00;;
42226;SDS011;27892;52.378;13.122;2022-10-16T09:26:42;1.10;;;1.10;;
42226;SDS011;27892;52.378;13.122;2022-10-16T09:29:10;0.90;;;0.90;;
42226;SDS011;27892;52.378;13.122;2022-10-16T09:31:37;1.10;;;1.10;;
42226;SDS011;27892;52.378;13.122;2022-10-16T09:34:03;0.90;;;0.90;;
42226;SDS011;27892;52.378;13.122;2022-10-16T09:36:32;0.90;;;0.90;;
42226;SDS011;27892;52.378;13.122;2022-10-16T09:39:07;0.80;;;0.80;;
42226;SDS011;27892;52.378;13.122;2022-10-16T09:41:34;1.48;;;1.35;;
42226;SDS011;27892;52.378;13.122;2022-10-16T09:44:02;3.70;;;3.35;;
42226;SDS011;27892;52.378;13.122;2022-10-16T09:46:32;3.05;;;2.70;;
42226;SDS011;27892;52.378;13.122;2022-10-16T09:49:18;1.85;;;1.60;;
42226;SDS011;27892;52.378;13.122;2022-10-16T09:51:48;1.27;;;1.20;;
42226;SDS011;27892;52.378;13.122;2022-10-16T09:54:19;1.20;;;1.20;;
42226;SDS011;27892;52.378;13.122;2022-10-16T09:56:46;1.00;;;1.00;;
42226;SDS011;27892;52.378;13.122;2022-10-16T09:59:20;0.80;;;0.80;;
42226;SDS011;27892;52.378;13.122;2022-10-16T10:04:22;1.08;;;1.00;;
42226;SDS011;27892;52.378;13.122;2022-10-16T10:06:50;1.75;;;1.60;;
42226;SDS011;27892;52.378;13.122;2022-10-16T10:12:01;1.25;;;1.25;;
42226;SDS011;27892;52.378;13.122;2022-10-16T10:14:30;1.02;;;1.02;;
42226;SDS011;27892;52.378;13.122;2022-10-16T10:19:29;0.90;;;0.90;;
42226;SDS011;27892;52.378;13.122;2022-10-16T10:22:02;1.00;;;1.00;;
42226;SDS011;27892;52.378;13.122;2022-10-16T10:24:41;0.70;;;0.70;;
42226;SDS011;27892;52.378;13.122;2022-10-16T10:27:08;1.05;;;1.05;;
42226;SDS011;27892;52.378;13.122;2022-10-16T10:29:49;0.80;;;0.80;;
42226;SDS011;27892;52.378;13.122;2022-10-16T10:38:57;2.63;;;0.90;;
42226;SDS011;27892;52.378;13.122;2022-10-16T10:44:00;0.98;;;0.98;;
42226;SDS011;27892;52.378;13.122;2022-10-16T10:46:34;1.02;;;0.80;;
42226;SDS011;27892;52.378;13.122;2022-10-16T10:52:01;1.02;;;0.90;;
42226;SDS011;27892;52.378;13.122;2022-10-16T10:54:36;0.68;;;0.68;;
42226;SDS011;27892;52.378;13.122;2022-10-16T10:57:09;0.70;;;0.70;;
42226;SDS011;27892;52.378;13.122;2022-10-16T11:07:52;1.00;;;1.00;;
42226;SDS011;27892;52.378;13.122;2022-10-16T11:10:54;0.80;;;0.80;;
42226;SDS011;27892;52.378;13.122;2022-10-16T11:13:30;0.80;;;0.80;;
42226;SDS011;27892;52.378;13.122;2022-10-16T11:16:15;0.60;;;0.60;;
42226;SDS011;27892;52.378;13.122;2022-10-16T11:18:55;0.70;;;0.70;;
42226;SDS011;27892;52.378;13.122;2022-10-16T11:21:22;0.80;;;0.80;;
42226;SDS011;27892;52.378;13.122;2022-10-16T11:26:25;0.85;;;0.60;;
42226;SDS011;27892;52.378;13.122;2022-10-16T11:28:54;0.70;;;0.70;;
42226;SDS011;27892;52.378;13.122;2022-10-16T11:31:42;1.17;;;0.88;;
42226;SDS011;27892;52.378;13.122;2022-10-16T11:34:13;1.27;;;0.80;;
42226;SDS011;27892;52.378;13.122;2022-10-16T11:36:53;0.60;;;0.60;;
42226;SDS011;27892;52.378;13.122;2022-10-16T11:45:10;0.57;;;0.57;;
42226;SDS011;27892;52.378;13.122;2022-10-16T11:47:56;0.50;;;0.50;;
42226;SDS011;27892;52.378;13.122;2022-10-16T11:50:48;1.15;;;0.57;;
42226;SDS011;27892;52.378;13.122;2022-10-16T11:55:48;2.10;;;1.90;;
42226;SDS011;27892;52.378;13.122;2022-10-16T12:01:11;0.98;;;0.98;;
42226;SDS011;27892;52.378;13.122;2022-10-16T12:07:00;0.50;;;0.50;;
42226;SDS011;27892;52.378;13.122;2022-10-16T12:09:35;0.50;;;0.50;;
42226;SDS011;27892;52.378;13.122;2022-10-16T12:12:03;0.60;;;0.60;;
42226;SDS011;27892;52.378;13.122;2022-10-16T12:17:04;7.25;;;5.35;;
42226;SDS011;27892;52.378;13.122;2022-10-16T12:19:56;3.80;;;3.47;;
42226;SDS011;27892;52.378;13.122;2022-10-16T12:22:28;1.60;;;1.50;;
42226;SDS011;27892;52.378;13.122;2022-10-16T12:24:55;1.40;;;1.00;;
42226;SDS011;27892;52.378;13.122;2022-10-16T12:27:24;0.90;;;0.90;;
42226;SDS011;27892;52.378;13.122;2022-10-16T12:29:58;0.60;;;0.60;;
42226;SDS011;27892;52.378;13.122;2022-10-16T12:32:37;0.50;;;0.50;;
42226;SDS011;27892;52.378;13.122;2022-10-16T12:35:05;0.50;;;0.50;;
42226;SDS011;27892;52.378;13.122;2022-10-16T12:37:41;0.70;;;0.70;;
42226;SDS011;27892;52.378;13.122;2022-10-16T12:40:14;0.50;;;0.50;;
42226;SDS011;27892;52.378;13.122;2022-10-16T12:42:49;0.68;;;0.68;;
42226;SDS011;27892;52.378;13.122;2022-10-16T12:45:48;1.30;;;0.70;;
42226;SDS011;27892;52.378;13.122;2022-10-16T12:48:18;0.60;;;0.60;;
42226;SDS011;27892;52.378;13.122;2022-10-16T12:50:46;0.70;;;0.70;;
42226;SDS011;27892;52.378;13.122;2022-10-16T12:53:25;0.60;;;0.60;;
42226;SDS011;27892;52.378;13.122;2022-10-16T12:58:27;0.50;;;0.50;;
42226;SDS011;27892;52.378;13.122;2022-10-16T13:07:38;0.60;;;0.60;;
42226;SDS011;27892;52.378;13.122;2022-10-16T13:16:02;0.60;;;0.60;;
42226;SDS011;27892;52.378;13.122;2022-10-16T13:19:18;0.50;;;0.50;;
42226;SDS011;27892;52.378;13.122;2022-10-16T13:27:43;0.65;;;0.63;;
42226;SDS011;27892;52.378;13.122;2022-10-16T13:30:26;1.08;;;0.85;;
42226;SDS011;27892;52.378;13.122;2022-10-16T13:33:06;0.63;;;0.63;;
42226;SDS011;27892;52.378;13.122;2022-10-16T13:35:45;0.70;;;0.70;;
42226;SDS011;27892;52.378;13.122;2022-10-16T13:38:19;0.57;;;0.57;;
42226;SDS011;27892;52.378;13.122;2022-10-16T13:40:56;0.75;;;0.75;;
42226;SDS011;27892;52.378;13.122;2022-10-16T13:43:37;0.55;;;0.55;;
42226;SDS011;27892;52.378;13.122;2022-10-16T13:46:06;0.60;;;0.60;;
42226;SDS011;27892;52.378;13.122;2022-10-16T13:48:37;0.55;;;0.55;;
42226;SDS011;27892;52.378;13.122;2022-10-16T13:51:04;0.60;;;0.60;;
42226;SDS011;27892;52.378;13.122;2022-10-16T13:53:32;0.70;;;0.70;;
42226;SDS011;27892;52.378;13.122;2022-10-16T13:55:59;0.70;;;0.70;;
42226;SDS011;27892;52.378;13.122;2022-10-16T13:58:27;1.02;;;1.00;;
42226;SDS011;27892;52.378;13.122;2022-10-16T14:00:56;0.80;;;0.70;;
42226;SDS011;27892;52.378;13.122;2022-10-16T14:03:24;0.70;;;0.70;;
42226;SDS011;27892;52.378;13.122;2022-10-16T14:05:52;0.57;;;0.57;;
42226;SDS011;27892;52.378;13.122;2022-10-16T14:08:20;1.40;;;0.80;;
42226;SDS011;27892;52.378;13.122;2022-10-16T14:10:50;0.68;;;0.68;;
42226;SDS011;27892;52.378;13.122;2022-10-16T14:13:19;0.70;;;0.70;;
42226;SDS011;27892;52.378;13.122;2022-10-16T14:15:51;0.70;;;0.70;;
42226;SDS011;27892;52.378;13.122;2022-10-16T14:18:22;0.70;;;0.70;;
42226;SDS011;27892;52.378;13.122;2022-10-16T14:20:51;0.65;;;0.65;;
42226;SDS011;27892;52.378;13.122;2022-10-16T14:23:21;0.50;;;0.50;;
42226;SDS011;27892;52.378;13.122;2022-10-16T14:26:05;0.50;;;0.50;;
42226;SDS011;27892;52.378;13.122;2022-10-16T14:28:42;0.70;;;0.70;;
42226;SDS011;27892;52.378;13.122;2022-10-16T14:33:49;0.73;;;0.73;;
42226;SDS011;27892;52.378;13.122;2022-10-16T14:36:15;0.70;;;0.70;;
42226;SDS011;27892;52.378;13.122;2022-10-16T14:38:54;0.80;;;0.80;;
42226;SDS011;27892;52.378;13.122;2022-10-16T14:41:30;0.70;;;0.70;;
42226;SDS011;27892;52.378;13.122;2022-10-16T14:44:00;2.47;;;2.17;;
42226;SDS011;27892;52.378;13.122;2022-10-16T14:46:31;1.80;;;1.70;;
42226;SDS011;27892;52.378;13.122;2022-10-16T14:51:36;0.98;;;0.98;;
42226;SDS011;27892;52.378;13.122;2022-10-16T14:54:03;0.85;;;0.85;;
42226;SDS011;27892;52.378;13.122;2022-10-16T14:56:30;0.70;;;0.70;;
42226;SDS011;27892;52.378;13.122;2022-10-16T14:59:00;0.73;;;0.73;;
42226;SDS011;27892;52.378;13.122;2022-10-16T15:01:27;0.85;;;0.85;;
42226;SDS011;27892;52.378;13.122;2022-10-16T15:03:52;0.70;;;0.70;;
42226;SDS011;27892;52.378;13.122;2022-10-16T15:06:19;2.50;;;0.95;;
42226;SDS011;27892;52.378;13.122;2022-10-16T15:08:45;0.70;;;0.70;;
42226;SDS011;27892;52.378;13.122;2022-10-16T15:11:12;0.68;;;0.68;;
42226;SDS011;27892;52.378;13.122;2022-10-16T15:13:40;1.17;;;1.13;;
42226;SDS011;27892;52.378;13.122;2022-10-16T15:16:14;0.93;;;0.93;;
42226;SDS011;27892;52.378;13.122;2022-10-16T15:18:41;1.00;;;1.00;;
42226;SDS011;27892;52.378;13.122;2022-10-16T15:21:07;1.00;;;1.00;;
42226;SDS011;27892;52.378;13.122;2022-10-16T15:23:32;0.77;;;0.77;;
42226;SDS011;27892;52.378;13.122;2022-10-16T15:25:58;0.70;;;0.70;;
42226;SDS011;27892;52.378;13.122;2022-10-16T15:28:24;0.73;;;0.73;;
42226;SDS011;27892;52.378;13.122;2022-10-16T15:30:51;0.68;;;0.68;;
42226;SDS011;27892;52.378;13.122;2022-10-16T15:33:20;0.60;;;0.60;;
42226;SDS011;27892;52.378;13.122;2022-10-16T15:35:51;0.52;;;0.52;;
42226;SDS011;27892;52.378;13.122;2022-10-16T15:38:18;0.60;;;0.60;;
42226;SDS011;27892;52.378;13.122;2022-10-16T15:40:47;0.73;;;0.73;;
42226;SDS011;27892;52.378;13.122;2022-10-16T15:43:13;0.60;;;0.60;;
42226;SDS011;27892;52.378;13.122;2022-10-16T15:45:39;0.77;;;0.77;;
42226;SDS011;27892;52.378;13.122;2022-10-16T15:48:05;0.82;;;0.82;;
42226;SDS011;27892;52.378;13.122;2022-10-16T15:50:31;0.80;;;0.80;;
42226;SDS011;27892;52.378;13.122;2022-10-16T15:52:57;0.80;;;0.80;;
42226;SDS011;27892;52.378;13.122;2022-10-16T15:55:23;0.80;;;0.80;;
42226;SDS011;27892;52.378;13.122;2022-10-16T15:57:49;0.80;;;0.80;;
42226;SDS011;27892;52.378;13.122;2022-10-16T16:00:15;0.70;;;0.70;;
42226;SDS011;27892;52.378;13.122;2022-10-16T16:02:43;1.10;;;1.10;;
42226;SDS011;27892;52.378;13.122;2022-10-16T16:05:14;1.30;;;1.30;;
42226;SDS011;27892;52.378;13.122;2022-10-16T16:07:40;2.20;;;2.00;;
42226;SDS011;27892;52.378;13.122;2022-10-16T16:10:07;2.00;;;1.90;;
42226;SDS011;27892;52.378;13.122;2022-10-16T16:12:33;2.50;;;2.30;;
42226;SDS011;27892;52.378;13.122;2022-10-16T16:14:59;2.60;;;2.40;;
42226;SDS011;27892;52.378;13.122;2022-10-16T16:17:25;3.17;;;2.87;;
42226;SDS011;27892;52.378;13.122;2022-10-16T16:19:51;3.33;;;2.77;;
42226;SDS011;27892;52.378;13.122;2022-10-16T16:22:16;3.23;;;2.93;;
42226;SDS011;27892;52.378;13.122;2022-10-16T16:24:42;4.63;;;3.47;;
42226;SDS011;27892;52.378;13.122;2022-10-16T16:27:08;4.03;;;3.30;;
42226;SDS011;27892;52.378;13.122;2022-10-16T16:29:34;3.93;;;3.30;;